createdAt,value
2018-04-10T00:00:18.154Z,69.30
2018-04-10T00:00:51.428Z,69.70
2018-04-10T00:01:24.704Z,69.70
2018-04-10T00:01:57.997Z,69.60
2018-04-10T00:02:31.276Z,69.60
2018-04-10T00:03:04.568Z,69.70
2018-04-10T00:03:37.956Z,69.90
2018-04-10T00:04:11.229Z,69.80
2018-04-10T00:04:45.272Z,70.20
2018-04-10T00:05:18.547Z,70.20
2018-04-10T00:05:51.848Z,70.20
2018-04-10T00:06:25.119Z,70.20
2018-04-10T00:06:58.418Z,70.20
2018-04-10T00:07:32.452Z,70.40
2018-04-10T00:08:05.712Z,70.40
2018-04-10T00:08:39.002Z,70.40
2018-04-10T00:09:12.278Z,70.70
2018-04-10T00:09:45.538Z,70.90
2018-04-10T00:10:19.595Z,71.10
2018-04-10T00:10:52.932Z,71.00
2018-04-10T00:11:26.201Z,71.20
2018-04-10T00:12:00.260Z,71.30
2018-04-10T00:12:33.549Z,71.20
2018-04-10T00:13:06.836Z,71.10
2018-04-10T00:13:40.099Z,72.00
2018-04-10T00:14:13.371Z,71.40
2018-04-10T00:14:47.404Z,71.60
2018-04-10T00:15:20.679Z,71.70
2018-04-10T00:15:53.960Z,72.80
2018-04-10T00:16:27.227Z,73.40
2018-04-10T00:17:00.516Z,72.10
2018-04-10T00:17:33.827Z,71.90
2018-04-10T00:18:07.104Z,71.70
2018-04-10T00:18:41.127Z,71.80
2018-04-10T00:19:14.401Z,71.80
2018-04-10T00:19:47.673Z,71.50
2018-04-10T00:20:20.977Z,75.30
2018-04-10T00:20:54.233Z,73.90
2018-04-10T00:21:27.514Z,74.00
2018-04-10T00:22:00.783Z,72.80
2018-04-10T00:22:34.848Z,71.90
2018-04-10T00:23:08.127Z,71.80
2018-04-10T00:23:41.396Z,73.30
2018-04-10T00:24:14.740Z,72.10
2018-04-10T00:24:48.028Z,71.50
2018-04-10T00:25:21.332Z,71.60
2018-04-10T00:25:54.629Z,71.70
2018-04-10T00:26:27.909Z,73.50
2018-04-10T00:27:02.704Z,72.00
2018-04-10T00:27:35.987Z,71.90
2018-04-10T00:28:09.281Z,71.60
2018-04-10T00:28:42.616Z,71.50
2018-04-10T00:29:16.140Z,71.40
2018-04-10T00:29:49.406Z,71.30
2018-04-10T00:30:22.675Z,71.30
2018-04-10T00:30:55.971Z,71.30
2018-04-10T00:31:29.243Z,71.30
2018-04-10T00:32:02.523Z,71.30
2018-04-10T00:32:35.823Z,71.40
2018-04-10T00:33:09.088Z,71.30
2018-04-10T00:33:42.356Z,71.30
2018-04-10T00:34:15.623Z,71.30
2018-04-10T00:34:48.894Z,71.30
2018-04-10T00:35:22.180Z,71.20
2018-04-10T00:35:55.451Z,71.30
2018-04-10T00:36:28.718Z,71.30
2018-04-10T00:37:02.752Z,71.20
2018-04-10T00:37:36.040Z,71.20
2018-04-10T00:38:10.080Z,71.30
2018-04-10T00:38:43.359Z,72.20
2018-04-10T00:39:16.632Z,71.80
2018-04-10T00:39:49.913Z,71.60
2018-04-10T00:40:23.190Z,71.60
2018-04-10T00:40:56.480Z,71.60
2018-04-10T00:41:29.796Z,71.80
2018-04-10T00:42:03.070Z,71.80
2018-04-10T00:42:36.358Z,71.80
2018-04-10T00:43:09.647Z,72.00
2018-04-10T00:43:42.924Z,72.10
2018-04-10T00:44:16.192Z,72.00
2018-04-10T00:44:49.471Z,72.10
2018-04-10T00:45:23.492Z,72.00
2018-04-10T00:45:56.764Z,72.00
2018-04-10T00:46:30.039Z,72.10
2018-04-10T00:47:04.086Z,72.10
2018-04-10T00:47:37.379Z,72.20
2018-04-10T00:48:10.660Z,72.00
2018-04-10T00:48:43.941Z,71.90
2018-04-10T00:49:17.238Z,72.10
2018-04-10T00:49:50.513Z,72.40
2018-04-10T00:50:24.548Z,72.50
2018-04-10T00:50:57.821Z,72.50
2018-04-10T00:51:31.090Z,72.50
2018-04-10T00:52:04.372Z,72.50
2018-04-10T00:52:37.683Z,72.70
2018-04-10T00:53:22.995Z,72.90
2018-04-10T00:53:56.272Z,73.00
2018-04-10T00:54:30.323Z,73.40
2018-04-10T00:55:03.607Z,73.40
2018-04-10T00:55:36.872Z,73.50
2018-04-10T00:56:10.920Z,73.90
2018-04-10T00:56:44.192Z,73.50
2018-04-10T00:57:17.472Z,73.80
2018-04-10T00:57:50.740Z,73.90
2018-04-10T00:58:24.041Z,74.00
2018-04-10T00:58:57.311Z,74.00
2018-04-10T00:59:30.595Z,74.00
2018-04-10T01:00:03.919Z,74.10
2018-04-10T01:00:37.192Z,74.30
2018-04-10T01:01:10.471Z,74.30
2018-04-10T01:01:44.003Z,74.30
2018-04-10T01:02:17.233Z,74.60
2018-04-10T01:02:50.519Z,74.40
2018-04-10T01:03:23.797Z,74.30
2018-04-10T01:03:57.073Z,74.30
2018-04-10T01:04:31.119Z,74.70
2018-04-10T01:05:04.399Z,74.70
2018-04-10T01:05:37.684Z,74.90
2018-04-10T01:06:11.708Z,74.80
2018-04-10T01:06:45.750Z,75.90
2018-04-10T01:07:19.023Z,74.80
2018-04-10T01:07:52.326Z,74.70
2018-04-10T01:08:25.588Z,74.70
2018-04-10T01:08:58.852Z,74.80
2018-04-10T01:09:32.120Z,74.70
2018-04-10T01:10:06.189Z,74.80
2018-04-10T01:10:39.471Z,74.80
2018-04-10T01:11:12.729Z,74.90
2018-04-10T01:11:45.992Z,75.00
2018-04-10T01:12:19.283Z,75.10
2018-04-10T01:12:52.564Z,75.20
2018-04-10T01:13:25.944Z,75.30
2018-04-10T01:13:59.204Z,75.30
2018-04-10T01:14:32.471Z,75.10
2018-04-10T01:15:05.752Z,75.30
2018-04-10T01:15:39.027Z,75.30
2018-04-10T01:16:13.070Z,75.60
2018-04-10T01:16:46.348Z,75.60
2018-04-10T01:17:19.628Z,75.60
2018-04-10T01:17:52.898Z,75.30
2018-04-10T01:18:26.197Z,75.60
2018-04-10T01:18:59.481Z,75.70
2018-04-10T01:19:32.740Z,75.70
2018-04-10T01:20:06.783Z,75.70
2018-04-10T01:20:40.052Z,75.70
2018-04-10T01:21:13.321Z,75.70
2018-04-10T01:21:46.599Z,75.90
2018-04-10T01:22:19.867Z,75.50
2018-04-10T01:22:53.160Z,75.80
2018-04-10T01:23:26.420Z,75.80
2018-04-10T01:23:59.683Z,75.90
2018-04-10T01:24:32.963Z,76.00
2018-04-10T01:25:06.244Z,75.60
2018-04-10T01:25:39.511Z,75.90
2018-04-10T01:26:12.783Z,75.90
2018-04-10T01:26:46.051Z,76.00
2018-04-10T01:27:20.087Z,76.10
2018-04-10T01:27:53.368Z,75.90
2018-04-10T01:28:26.652Z,76.20
2018-04-10T01:28:59.927Z,76.10
2018-04-10T01:29:33.197Z,76.20
2018-04-10T01:30:06.487Z,76.00
2018-04-10T01:30:39.847Z,75.90
2018-04-10T01:31:13.138Z,75.90
2018-04-10T01:31:46.403Z,75.80
2018-04-10T01:32:19.692Z,75.70
2018-04-10T01:32:52.967Z,75.80
2018-04-10T01:33:26.259Z,75.90
2018-04-10T01:33:59.527Z,75.90
2018-04-10T01:34:33.001Z,75.70
2018-04-10T01:35:07.048Z,75.80
2018-04-10T01:35:40.316Z,75.80
2018-04-10T01:36:13.591Z,75.60
2018-04-10T01:36:46.868Z,75.70
2018-04-10T01:37:20.138Z,75.70
2018-04-10T01:37:53.412Z,75.90
2018-04-10T01:38:26.696Z,75.80
2018-04-10T01:38:59.975Z,75.90
2018-04-10T01:39:33.376Z,75.80
2018-04-10T01:40:06.636Z,76.00
2018-04-10T01:40:40.676Z,76.20
2018-04-10T01:41:13.930Z,76.10
2018-04-10T01:41:47.207Z,76.20
2018-04-10T01:42:20.491Z,76.20
2018-04-10T01:42:53.767Z,76.10
2018-04-10T01:43:27.054Z,76.20
2018-04-10T01:44:00.319Z,76.30
2018-04-10T01:44:33.604Z,76.20
2018-04-10T01:45:06.880Z,76.20
2018-04-10T01:45:40.183Z,76.30
2018-04-10T01:46:13.460Z,76.40
2018-04-10T01:46:46.758Z,76.50
2018-04-10T01:47:20.018Z,76.50
2018-04-10T01:47:54.073Z,76.60
2018-04-10T01:48:27.357Z,76.60
2018-04-10T01:49:01.394Z,76.60
2018-04-10T01:49:34.652Z,76.60
2018-04-10T01:50:07.927Z,76.70
2018-04-10T01:50:41.199Z,76.70
2018-04-10T01:51:14.480Z,76.60
2018-04-10T01:51:48.520Z,76.60
2018-04-10T01:52:21.811Z,76.60
2018-04-10T01:52:55.088Z,76.90
2018-04-10T01:53:28.384Z,76.90
2018-04-10T01:54:01.677Z,76.90
2018-04-10T01:54:34.936Z,77.00
2018-04-10T01:55:08.212Z,76.90
2018-04-10T01:55:41.504Z,76.90
2018-04-10T01:56:14.767Z,77.00
2018-04-10T01:56:48.053Z,77.10
2018-04-10T01:57:21.320Z,77.40
2018-04-10T01:57:54.587Z,77.30
2018-04-10T01:58:27.871Z,77.40
2018-04-10T01:59:01.269Z,77.50
2018-04-10T01:59:34.559Z,77.50
2018-04-10T02:00:07.827Z,77.50
2018-04-10T02:00:41.108Z,77.50
2018-04-10T02:01:14.376Z,77.60
2018-04-10T02:01:47.661Z,77.60
2018-04-10T02:02:20.939Z,77.60
2018-04-10T02:02:54.200Z,77.60
2018-04-10T02:03:27.484Z,77.60
2018-04-10T02:04:00.896Z,77.50
2018-04-10T02:04:34.387Z,77.40
2018-04-10T02:05:07.659Z,77.60
2018-04-10T02:05:40.927Z,77.50
2018-04-10T02:06:14.211Z,77.60
2018-04-10T02:06:47.473Z,77.70
2018-04-10T02:07:20.735Z,77.60
2018-04-10T02:07:54.773Z,77.60
2018-04-10T02:08:28.062Z,77.60
2018-04-10T02:09:01.339Z,77.60
2018-04-10T02:09:34.615Z,77.70
2018-04-10T02:10:07.886Z,77.70
2018-04-10T02:10:41.152Z,77.90
2018-04-10T02:11:14.420Z,77.90
2018-04-10T02:11:47.702Z,77.80
2018-04-10T02:12:20.968Z,77.90
2018-04-10T02:12:55.015Z,78.10
2018-04-10T02:13:28.289Z,78.10
2018-04-10T02:14:01.676Z,78.10
2018-04-10T02:14:34.953Z,78.10
2018-04-10T02:15:08.219Z,78.10
2018-04-10T02:15:41.492Z,78.00
2018-04-10T02:16:14.789Z,78.00
2018-04-10T02:16:48.043Z,79.00
2018-04-10T02:17:21.339Z,78.20
2018-04-10T02:17:54.780Z,78.10
2018-04-10T02:18:28.051Z,78.10
2018-04-10T02:19:01.344Z,78.20
2018-04-10T02:19:34.624Z,78.30
2018-04-10T02:20:07.913Z,78.10
2018-04-10T02:20:41.954Z,78.20
2018-04-10T02:21:15.231Z,78.10
2018-04-10T02:21:48.499Z,78.00
2018-04-10T02:22:21.774Z,77.90
2018-04-10T02:22:55.073Z,78.10
2018-04-10T02:23:28.343Z,78.00
2018-04-10T02:24:01.621Z,78.20
2018-04-10T02:24:35.047Z,78.20
2018-04-10T02:25:08.367Z,78.20
2018-04-10T02:25:42.349Z,78.10
2018-04-10T02:26:16.399Z,79.00
2018-04-10T02:26:49.755Z,78.20
2018-04-10T02:27:23.145Z,78.10
2018-04-10T02:27:56.403Z,78.10
2018-04-10T02:28:29.684Z,78.20
2018-04-10T02:29:03.726Z,78.40
2018-04-10T02:29:37.012Z,78.40
2018-04-10T02:30:10.279Z,78.30
2018-04-10T02:30:43.539Z,78.20
2018-04-10T02:31:16.817Z,78.20
2018-04-10T02:31:50.092Z,78.30
2018-04-10T02:32:23.374Z,78.40
2018-04-10T02:32:56.642Z,78.20
2018-04-10T02:33:30.688Z,78.30
2018-04-10T02:34:03.972Z,78.20
2018-04-10T02:34:37.581Z,78.20
2018-04-10T02:35:10.856Z,78.20
2018-04-10T02:35:44.905Z,78.40
2018-04-10T02:36:18.174Z,78.40
2018-04-10T02:36:51.469Z,78.30
2018-04-10T02:37:24.740Z,78.30
2018-04-10T02:37:58.132Z,78.30
2018-04-10T02:38:31.419Z,78.40
2018-04-10T02:39:04.803Z,78.30
2018-04-10T02:39:38.085Z,78.40
2018-04-10T02:40:11.376Z,79.30
2018-04-10T02:40:44.641Z,78.40
2018-04-10T02:41:17.931Z,78.30
2018-04-10T02:41:51.228Z,78.40
2018-04-10T02:42:24.491Z,78.50
2018-04-10T02:42:57.767Z,78.60
2018-04-10T02:43:31.053Z,78.70
2018-04-10T02:44:04.324Z,78.90
2018-04-10T02:44:37.597Z,78.90
2018-04-10T02:45:10.879Z,78.70
2018-04-10T02:45:44.150Z,78.80
2018-04-10T02:46:17.418Z,78.70
2018-04-10T02:46:50.684Z,78.70
2018-04-10T02:47:24.724Z,79.20
2018-04-10T02:47:58.001Z,79.20
2018-04-10T02:48:31.272Z,79.10
2018-04-10T02:49:04.544Z,79.20
2018-04-10T02:49:37.820Z,79.00
2018-04-10T02:50:11.100Z,79.00
2018-04-10T02:50:44.378Z,78.90
2018-04-10T02:51:18.409Z,79.00
2018-04-10T02:51:51.679Z,79.10
2018-04-10T02:52:24.942Z,78.90
2018-04-10T02:52:58.208Z,79.10
2018-04-10T02:53:32.240Z,78.90
2018-04-10T02:54:05.504Z,78.90
2018-04-10T02:54:38.774Z,79.10
2018-04-10T02:55:12.058Z,79.00
2018-04-10T02:55:45.336Z,79.00
2018-04-10T02:56:18.618Z,79.00
2018-04-10T02:56:52.680Z,79.40
2018-04-10T02:57:25.960Z,79.30
2018-04-10T02:57:59.239Z,79.50
2018-04-10T02:58:32.570Z,79.50
2018-04-10T02:59:05.840Z,79.00
2018-04-10T02:59:39.106Z,79.20
2018-04-10T03:00:13.174Z,79.40
2018-04-10T03:00:46.451Z,79.40
2018-04-10T03:01:19.733Z,79.40
2018-04-10T03:01:53.009Z,79.50
2018-04-10T03:02:26.589Z,79.70
2018-04-10T03:02:59.880Z,79.60
2018-04-10T03:03:33.140Z,79.60
2018-04-10T03:04:06.416Z,79.60
2018-04-10T03:04:39.684Z,79.60
2018-04-10T03:05:12.976Z,79.60
2018-04-10T03:05:46.247Z,79.40
2018-04-10T03:06:19.528Z,79.60
2018-04-10T03:06:52.804Z,79.70
2018-04-10T03:07:26.088Z,79.90
2018-04-10T03:07:59.353Z,80.00
2018-04-10T03:08:32.621Z,79.90
2018-04-10T03:09:06.657Z,79.70
2018-04-10T03:09:39.933Z,79.70
2018-04-10T03:10:13.208Z,79.90
2018-04-10T03:10:46.499Z,79.90
2018-04-10T03:11:19.788Z,80.00
2018-04-10T03:11:53.048Z,80.00
2018-04-10T03:12:26.321Z,79.90
2018-04-10T03:12:59.601Z,80.10
2018-04-10T03:13:32.868Z,80.00
2018-04-10T03:14:06.145Z,79.90
2018-04-10T03:14:40.171Z,80.00
2018-04-10T03:15:13.439Z,80.00
2018-04-10T03:15:46.741Z,79.90
2018-04-10T03:16:20.016Z,79.70
2018-04-10T03:16:53.282Z,79.50
2018-04-10T03:17:26.563Z,79.70
2018-04-10T03:17:59.838Z,79.70
2018-04-10T03:18:33.127Z,79.80
2018-04-10T03:19:06.408Z,79.80
2018-04-10T03:19:39.673Z,79.70
2018-04-10T03:20:12.956Z,79.70
2018-04-10T03:20:46.252Z,79.70
2018-04-10T03:21:19.504Z,79.90
2018-04-10T03:21:52.775Z,79.90
2018-04-10T03:22:26.824Z,79.90
2018-04-10T03:23:00.092Z,79.90
2018-04-10T03:23:33.365Z,79.80
2018-04-10T03:24:06.638Z,79.80
2018-04-10T03:24:39.911Z,79.90
2018-04-10T03:25:13.187Z,79.80
2018-04-10T03:25:46.472Z,79.70
2018-04-10T03:26:19.749Z,79.70
2018-04-10T03:26:53.017Z,79.80
2018-04-10T03:27:27.059Z,79.90
2018-04-10T03:28:00.327Z,79.90
2018-04-10T03:28:33.600Z,80.10
2018-04-10T03:29:06.863Z,80.10
2018-04-10T03:29:40.151Z,80.30
2018-04-10T03:30:13.428Z,80.20
2018-04-10T03:30:46.725Z,80.00
2018-04-10T03:31:20.018Z,80.00
2018-04-10T03:31:53.279Z,79.90
2018-04-10T03:32:26.795Z,79.80
2018-04-10T03:33:00.067Z,79.70
2018-04-10T03:33:33.341Z,79.80
2018-04-10T03:34:06.600Z,79.90
2018-04-10T03:34:39.874Z,80.00
2018-04-10T03:35:13.141Z,80.10
2018-04-10T03:35:47.193Z,79.90
2018-04-10T03:36:20.500Z,79.90
2018-04-10T03:36:53.770Z,79.70
2018-04-10T03:37:27.041Z,79.30
2018-04-10T03:38:00.304Z,79.80
2018-04-10T03:38:33.570Z,79.60
2018-04-10T03:39:07.775Z,79.50
2018-04-10T03:39:41.056Z,79.70
2018-04-10T03:40:14.339Z,79.50
2018-04-10T03:40:47.619Z,79.40
2018-04-10T03:41:20.913Z,79.40
2018-04-10T03:41:54.184Z,79.50
2018-04-10T03:42:27.466Z,79.20
2018-04-10T03:43:00.723Z,79.40
2018-04-10T03:43:33.993Z,79.40
2018-04-10T03:44:07.265Z,79.40
2018-04-10T03:44:41.304Z,79.30
2018-04-10T03:45:14.573Z,79.70
2018-04-10T03:45:47.840Z,79.30
2018-04-10T03:46:21.138Z,79.50
2018-04-10T03:46:54.417Z,79.50
2018-04-10T03:47:27.691Z,79.30
2018-04-10T03:48:00.959Z,79.20
2018-04-10T03:48:34.232Z,79.30
2018-04-10T03:49:07.524Z,79.30
2018-04-10T03:49:40.782Z,79.30
2018-04-10T03:50:14.063Z,79.30
2018-04-10T03:50:48.100Z,78.90
2018-04-10T03:51:21.383Z,79.00
2018-04-10T03:51:54.677Z,78.80
2018-04-10T03:52:27.940Z,79.00
2018-04-10T03:53:01.230Z,78.90
2018-04-10T03:53:34.495Z,78.70
2018-04-10T03:54:07.780Z,78.80
2018-04-10T03:54:41.056Z,78.70
2018-04-10T03:55:14.335Z,78.70
2018-04-10T03:55:48.407Z,78.80
2018-04-10T03:56:22.435Z,78.70
2018-04-10T03:56:55.727Z,78.70
2018-04-10T03:57:29.001Z,78.90
2018-04-10T03:58:02.267Z,78.80
2018-04-10T03:58:35.532Z,78.70
2018-04-10T03:59:08.804Z,78.90
2018-04-10T03:59:42.089Z,79.30
2018-04-10T04:00:15.360Z,79.10
2018-04-10T04:00:48.647Z,79.40
2018-04-10T04:01:21.917Z,79.30
2018-04-10T04:01:55.972Z,79.20
2018-04-10T04:02:29.332Z,79.20
2018-04-10T04:03:02.607Z,79.30
2018-04-10T04:03:35.873Z,79.20
2018-04-10T04:04:09.151Z,79.00
2018-04-10T04:04:42.420Z,79.20
2018-04-10T04:05:15.698Z,79.10
2018-04-10T04:05:48.954Z,79.30
2018-04-10T04:06:22.233Z,79.50
2018-04-10T04:06:55.588Z,78.80
2018-04-10T04:07:28.880Z,79.50
2018-04-10T04:08:02.456Z,79.60
2018-04-10T04:08:35.744Z,79.70
2018-04-10T04:09:09.020Z,79.40
2018-04-10T04:09:42.291Z,79.40
2018-04-10T04:10:15.598Z,79.50
2018-04-10T04:10:48.875Z,79.60
2018-04-10T04:11:22.154Z,79.70
2018-04-10T04:11:55.454Z,79.80
2018-04-10T04:12:29.507Z,79.50
2018-04-10T04:13:02.759Z,79.50
2018-04-10T04:13:36.048Z,79.50
2018-04-10T04:14:09.344Z,79.80
2018-04-10T04:14:42.725Z,79.60
2018-04-10T04:15:15.984Z,79.70
2018-04-10T04:15:49.249Z,79.50
2018-04-10T04:16:35.209Z,79.40
2018-04-10T04:17:20.373Z,79.40
2018-04-10T04:17:54.411Z,79.30
2018-04-10T04:18:39.604Z,79.30
2018-04-10T04:19:24.918Z,80.10
2018-04-10T04:20:10.748Z,78.60
2018-04-10T04:20:55.828Z,78.50
2018-04-10T04:21:42.090Z,80.40
2018-04-10T04:22:27.151Z,80.30
2018-04-10T04:23:00.426Z,78.90
2018-04-10T04:23:33.703Z,78.50
2018-04-10T04:24:06.986Z,78.30
2018-04-10T04:24:40.252Z,78.50
2018-04-10T04:25:14.288Z,79.40
2018-04-10T04:25:48.326Z,78.90
2018-04-10T04:26:21.591Z,78.80
2018-04-10T04:26:54.852Z,78.50
2018-04-10T04:27:28.903Z,78.30
2018-04-10T04:28:02.180Z,78.30
2018-04-10T04:28:35.459Z,78.80
2018-04-10T04:29:08.727Z,78.40
2018-04-10T04:29:41.995Z,78.10
2018-04-10T04:30:15.268Z,78.10
2018-04-10T04:30:48.543Z,77.90
2018-04-10T04:31:21.812Z,78.50
2018-04-10T04:31:55.121Z,78.40
2018-04-10T04:32:29.143Z,78.40
2018-04-10T04:33:02.415Z,78.30
2018-04-10T04:33:35.691Z,78.10
2018-04-10T04:34:08.961Z,78.40
2018-04-10T04:34:42.246Z,78.30
2018-04-10T04:35:15.528Z,78.40
2018-04-10T04:35:48.798Z,78.30
2018-04-10T04:36:22.059Z,78.50
2018-04-10T04:36:55.331Z,78.20
2018-04-10T04:37:28.620Z,78.20
2018-04-10T04:38:01.881Z,78.70
2018-04-10T04:38:35.927Z,77.80
2018-04-10T04:39:09.190Z,77.80
2018-04-10T04:39:42.473Z,78.10
2018-04-10T04:40:15.739Z,77.80
2018-04-10T04:40:49.032Z,77.50
2018-04-10T04:41:22.315Z,77.60
2018-04-10T04:41:55.588Z,77.50
2018-04-10T04:42:28.992Z,77.50
2018-04-10T04:43:02.267Z,77.20
2018-04-10T04:43:35.570Z,77.30
2018-04-10T04:44:08.840Z,77.50
2018-04-10T04:44:42.104Z,78.40
2018-04-10T04:45:15.387Z,77.50
2018-04-10T04:45:48.654Z,77.60
2018-04-10T04:46:21.923Z,77.60
2018-04-10T04:46:55.962Z,77.30
2018-04-10T04:47:29.261Z,77.30
2018-04-10T04:48:02.537Z,77.50
2018-04-10T04:48:35.812Z,77.70
2018-04-10T04:49:09.101Z,77.90
2018-04-10T04:49:42.374Z,77.70
2018-04-10T04:50:15.663Z,78.00
2018-04-10T04:50:48.942Z,77.90
2018-04-10T04:51:22.232Z,77.70
2018-04-10T04:51:55.512Z,77.70
2018-04-10T04:52:28.780Z,78.00
2018-04-10T04:53:02.073Z,78.00
2018-04-10T04:53:35.340Z,77.90
2018-04-10T04:54:08.611Z,78.10
2018-04-10T04:54:41.903Z,78.20
2018-04-10T04:55:15.168Z,78.20
2018-04-10T04:55:48.439Z,78.20
2018-04-10T04:56:21.716Z,78.20
2018-04-10T04:56:55.024Z,78.20
2018-04-10T04:57:28.318Z,78.10
2018-04-10T04:58:01.594Z,78.00
2018-04-10T04:58:34.867Z,77.80
2018-04-10T04:59:08.140Z,79.30
2018-04-10T04:59:42.161Z,78.10
2018-04-10T05:00:16.194Z,77.80
2018-04-10T05:00:49.480Z,77.80
2018-04-10T05:01:22.747Z,77.90
2018-04-10T05:01:56.802Z,78.10
2018-04-10T05:02:30.075Z,78.10
2018-04-10T05:03:03.355Z,78.00
2018-04-10T05:03:36.641Z,77.80
2018-04-10T05:04:09.927Z,77.70
2018-04-10T05:04:44.699Z,77.50
2018-04-10T05:05:17.976Z,77.50
2018-04-10T05:05:51.250Z,77.70
2018-04-10T05:06:24.540Z,77.40
2018-04-10T05:06:57.808Z,77.40
2018-04-10T05:07:31.083Z,77.20
2018-04-10T05:08:04.393Z,77.40
2018-04-10T05:08:37.661Z,77.70
2018-04-10T05:09:10.931Z,77.50
2018-04-10T05:09:44.213Z,77.30
2018-04-10T05:10:17.499Z,77.00
2018-04-10T05:10:50.776Z,76.70
2018-04-10T05:11:24.038Z,76.60
2018-04-10T05:11:57.310Z,76.70
2018-04-10T05:12:30.579Z,76.90
2018-04-10T05:13:04.616Z,76.90
2018-04-10T05:13:38.660Z,77.20
2018-04-10T05:14:11.940Z,77.20
2018-04-10T05:14:45.240Z,77.00
2018-04-10T05:15:19.301Z,77.20
2018-04-10T05:15:53.352Z,76.80
2018-04-10T05:16:27.376Z,77.70
2018-04-10T05:17:00.643Z,77.60
2018-04-10T05:17:33.904Z,78.50
2018-04-10T05:18:07.175Z,77.20
2018-04-10T05:18:40.483Z,77.00
2018-04-10T05:19:13.765Z,77.10
2018-04-10T05:19:47.044Z,77.00
2018-04-10T05:20:20.337Z,76.80
2018-04-10T05:20:53.599Z,76.90
2018-04-10T05:21:26.883Z,76.90
2018-04-10T05:22:00.151Z,76.70
2018-04-10T05:22:33.547Z,76.60
2018-04-10T05:23:06.936Z,76.40
2018-04-10T05:23:40.205Z,77.10
2018-04-10T05:24:13.501Z,76.70
2018-04-10T05:24:46.767Z,77.00
2018-04-10T05:25:20.051Z,77.00
2018-04-10T05:25:53.337Z,76.90
2018-04-10T05:26:26.616Z,76.70
2018-04-10T05:26:59.887Z,76.60
2018-04-10T05:27:33.147Z,76.70
2018-04-10T05:28:06.685Z,80.70
2018-04-10T05:28:39.973Z,79.00
2018-04-10T05:29:13.253Z,77.60
2018-04-10T05:29:46.523Z,77.30
2018-04-10T05:30:19.803Z,77.10
2018-04-10T05:30:53.085Z,76.80
2018-04-10T05:31:26.355Z,76.70
2018-04-10T05:31:59.640Z,76.60
2018-04-10T05:32:32.912Z,76.50
2018-04-10T05:33:06.182Z,77.60
2018-04-10T05:33:39.454Z,77.60
2018-04-10T05:34:12.782Z,78.90
2018-04-10T05:34:46.061Z,83.00
2018-04-10T05:35:19.330Z,85.30
2018-04-10T05:35:52.615Z,85.40
2018-04-10T05:36:25.898Z,84.90
2018-04-10T05:36:59.161Z,80.40
2018-04-10T05:37:32.461Z,78.60
2018-04-10T05:38:05.734Z,77.70
2018-04-10T05:38:39.011Z,77.10
2018-04-10T05:39:12.359Z,76.80
2018-04-10T05:39:45.669Z,76.50
2018-04-10T05:40:18.948Z,76.40
2018-04-10T05:40:52.220Z,76.40
2018-04-10T05:41:25.492Z,77.00
2018-04-10T05:41:58.756Z,78.90
2018-04-10T05:42:32.038Z,80.20
2018-04-10T05:43:05.322Z,84.90
2018-04-10T05:43:38.595Z,81.60
2018-04-10T05:44:11.871Z,80.40
2018-04-10T05:44:45.177Z,79.60
2018-04-10T05:45:18.448Z,78.20
2018-04-10T05:45:51.717Z,77.00
2018-04-10T05:46:24.980Z,76.60
2018-04-10T05:46:58.265Z,77.00
2018-04-10T05:47:31.527Z,80.80
2018-04-10T05:48:04.804Z,84.50
2018-04-10T05:48:38.841Z,85.40
2018-04-10T05:49:12.103Z,86.00
2018-04-10T05:49:45.396Z,83.70
2018-04-10T05:50:18.668Z,86.20
2018-04-10T05:50:51.948Z,84.30
2018-04-10T05:51:25.236Z,86.00
2018-04-10T05:51:58.515Z,86.20
2018-04-10T05:52:31.775Z,84.60
2018-04-10T05:53:05.040Z,85.30
2018-04-10T05:53:39.075Z,85.40
2018-04-10T05:54:12.444Z,85.30
2018-04-10T05:54:45.734Z,85.70
2018-04-10T05:55:19.021Z,84.90
2018-04-10T05:55:52.294Z,83.20
2018-04-10T05:56:25.569Z,80.40
2018-04-10T05:56:58.841Z,77.60
2018-04-10T05:57:32.120Z,82.60
2018-04-10T05:58:05.386Z,78.80
2018-04-10T05:58:38.666Z,80.10
2018-04-10T05:59:11.949Z,79.60
2018-04-10T05:59:45.244Z,84.90
2018-04-10T06:00:18.529Z,85.70
2018-04-10T06:00:51.796Z,87.30
2018-04-10T06:01:25.839Z,84.50
2018-04-10T06:01:59.204Z,84.40
2018-04-10T06:02:32.481Z,82.80
2018-04-10T06:03:05.776Z,84.30
2018-04-10T06:03:39.032Z,86.80
2018-04-10T06:04:12.341Z,87.10
2018-04-10T06:04:45.608Z,87.60
2018-04-10T06:05:18.892Z,86.10
2018-04-10T06:05:52.180Z,86.10
2018-04-10T06:06:26.213Z,85.70
2018-04-10T06:06:59.501Z,85.50
2018-04-10T06:07:32.829Z,87.10
2018-04-10T06:08:06.103Z,83.80
2018-04-10T06:08:39.376Z,85.80
2018-04-10T06:09:12.648Z,86.80
2018-04-10T06:09:45.920Z,82.30
2018-04-10T06:10:19.220Z,79.50
2018-04-10T06:10:52.490Z,77.80
2018-04-10T06:11:25.772Z,80.00
2018-04-10T06:11:59.053Z,85.10
2018-04-10T06:12:32.344Z,86.70
2018-04-10T06:13:05.603Z,87.30
2018-04-10T06:13:38.877Z,86.60
2018-04-10T06:14:12.152Z,86.80
2018-04-10T06:14:46.197Z,79.20
2018-04-10T06:15:19.487Z,79.80
2018-04-10T06:15:52.802Z,77.80
2018-04-10T06:16:26.059Z,79.20
2018-04-10T06:16:59.332Z,78.00
2018-04-10T06:17:32.671Z,77.40
2018-04-10T06:18:06.712Z,75.90
2018-04-10T06:18:39.971Z,75.90
2018-04-10T06:19:13.261Z,75.40
2018-04-10T06:19:46.555Z,75.50
2018-04-10T06:20:19.827Z,77.50
2018-04-10T06:20:53.099Z,84.50
2018-04-10T06:21:26.427Z,86.60
2018-04-10T06:21:59.664Z,85.60
2018-04-10T06:22:32.958Z,81.60
2018-04-10T06:23:06.220Z,85.10
2018-04-10T06:23:39.497Z,87.50
2018-04-10T06:24:12.757Z,88.20
2018-04-10T06:24:46.028Z,80.50
2018-04-10T06:25:19.329Z,82.90
2018-04-10T06:25:52.611Z,86.70
2018-04-10T06:26:25.880Z,88.40
2018-04-10T06:26:59.161Z,88.80
2018-04-10T06:27:32.415Z,88.50
2018-04-10T06:28:06.460Z,89.80
2018-04-10T06:28:39.737Z,89.90
2018-04-10T06:29:13.024Z,88.70
2018-04-10T06:29:46.288Z,89.90
2018-04-10T06:30:19.572Z,88.70
2018-04-10T06:30:52.864Z,86.10
2018-04-10T06:31:26.148Z,82.60
2018-04-10T06:31:59.407Z,86.00
2018-04-10T06:32:32.683Z,87.50
2018-04-10T06:33:05.969Z,89.30
2018-04-10T06:33:39.240Z,88.10
2018-04-10T06:34:12.516Z,89.30
2018-04-10T06:34:45.795Z,85.40
2018-04-10T06:35:19.088Z,84.80
2018-04-10T06:35:52.379Z,88.90
2018-04-10T06:36:25.658Z,89.70
2018-04-10T06:36:58.925Z,89.60
2018-04-10T06:37:32.188Z,89.00
2018-04-10T06:38:05.467Z,89.60
2018-04-10T06:38:38.735Z,89.50
2018-04-10T06:39:12.767Z,87.80
2018-04-10T06:39:46.046Z,87.60
2018-04-10T06:40:19.327Z,83.30
2018-04-10T06:40:52.603Z,85.20
2018-04-10T06:41:25.982Z,83.30
2018-04-10T06:41:59.257Z,81.40
2018-04-10T06:42:32.527Z,83.90
2018-04-10T06:43:05.792Z,80.50
2018-04-10T06:43:39.827Z,85.80
2018-04-10T06:44:13.100Z,85.80
2018-04-10T06:44:46.376Z,82.20
2018-04-10T06:45:19.646Z,85.50
2018-04-10T06:45:52.944Z,84.90
2018-04-10T06:46:26.232Z,86.70
2018-04-10T06:46:59.501Z,80.30
2018-04-10T06:47:32.782Z,83.90
2018-04-10T06:48:06.054Z,87.40
2018-04-10T06:48:39.324Z,88.00
2018-04-10T06:49:12.612Z,84.00
2018-04-10T06:49:45.888Z,88.90
2018-04-10T06:50:19.175Z,89.60
2018-04-10T06:50:52.459Z,89.90
2018-04-10T06:51:25.761Z,89.90
2018-04-10T06:51:59.774Z,89.80
2018-04-10T06:52:33.055Z,89.80
2018-04-10T06:53:06.312Z,89.10
2018-04-10T06:53:39.600Z,89.40
2018-04-10T06:54:12.876Z,87.00
2018-04-10T06:54:46.160Z,89.00
2018-04-10T06:55:19.428Z,90.00
2018-04-10T06:55:52.699Z,89.30
2018-04-10T06:56:25.986Z,86.30
2018-04-10T06:56:59.273Z,88.60
2018-04-10T06:57:32.548Z,89.00
2018-04-10T06:58:05.829Z,84.50
2018-04-10T06:58:39.104Z,82.80
2018-04-10T06:59:12.472Z,82.20
2018-04-10T06:59:45.759Z,84.30
2018-04-10T07:00:19.028Z,86.80
2018-04-10T07:00:52.296Z,88.80
2018-04-10T07:01:25.580Z,87.40
2018-04-10T07:01:59.613Z,85.50
2018-04-10T07:02:32.889Z,85.40
2018-04-10T07:03:06.168Z,88.40
2018-04-10T07:03:39.464Z,89.50
2018-04-10T07:04:13.500Z,89.80
2018-04-10T07:04:46.768Z,89.80
2018-04-10T07:05:20.060Z,89.90
2018-04-10T07:05:53.339Z,89.70
2018-04-10T07:06:26.646Z,90.10
2018-04-10T07:06:59.926Z,89.50
2018-04-10T07:07:33.211Z,89.40
2018-04-10T07:08:06.497Z,89.50
2018-04-10T07:08:39.771Z,89.60
2018-04-10T07:09:13.059Z,89.50
2018-04-10T07:09:46.344Z,89.40
2018-04-10T07:10:19.609Z,89.20
2018-04-10T07:10:52.899Z,88.90
2018-04-10T07:11:26.186Z,88.90